Time;durP1;ratioP1;P1;durP2;ratioP2;P2;SDS_P1;SDS_P2;PMS_P1;PMS_P2;Temp;Humidity;BMP_temperature;BMP_pressure;BME280_temperature;BME280_humidity;BME280_pressure;Samples;Min_cycle;Max_cycle;Signal;HPM_P1;HPM_P2
2022/06/30 00:02:06;;;;;;;;;;;;;;;25.76;51.63;154134.33;1719635;82;20200;-60
2022/06/30 00:04:33;;;;;;;;;;;;;;;25.71;51.77;154122.52;1709555;84;22081;-60
2022/06/30 00:06:59;;;;;;;;;;;;;;;25.65;51.97;154108.09;1709513;82;20141;-60
2022/06/30 00:09:27;;;;;;;;;;;;;;;25.64;52.15;154105.47;1709557;82;20617;-60
2022/06/30 00:11:53;;;;;;;;;;;;;;;25.65;52.30;154108.09;1709593;83;20596;-60
2022/06/30 00:14:20;;;;;;;;;;;;;;;25.65;52.34;154108.09;1709740;82;20456;-61
2022/06/30 00:16:48;;;;;;;;;;;;;;;25.60;52.42;154095.00;1709843;82;21867;-61
2022/06/30 00:19:15;;;;;;;;;;;;;;;25.55;52.53;154081.91;1709673;82;20169;-61
2022/06/30 00:21:41;;;;;;;;;;;;;;;25.44;52.72;154055.62;1709596;83;20453;-61
2022/06/30 00:24:08;;;;;;;;;;;;;;;25.37;53.01;154035.97;1709550;84;20188;-61
2022/06/30 00:26:35;;;;;;;;;;;;;;;25.30;53.19;154018.92;1709749;84;20170;-61
2022/06/30 00:29:02;;;;;;;;;;;;;;;25.24;53.42;154003.22;1709739;82;21208;-61
2022/06/30 00:31:29;;;;;;;;;;;;;;;25.24;53.79;154004.55;1709914;83;20218;-60
2022/06/30 00:33:56;;;;;;;;;;;;;;;25.23;53.87;154000.59;1709507;82;20188;-60
2022/06/30 00:36:22;;;;;;;;;;;;;;;25.17;54.12;153986.17;1709671;82;20173;-60
2022/06/30 00:38:49;;;;;;;;;;;;;;;25.08;54.44;153963.89;1709679;83;20169;-60
2022/06/30 00:41:16;;;;;;;;;;;;;;;25.00;54.66;153942.95;1709871;83;21235;-60
2022/06/30 00:43:44;;;;;;;;;;;;;;;24.97;54.93;153935.09;1709345;84;20418;-60
2022/06/30 00:46:11;;;;;;;;;;;;;;;24.93;55.19;153924.63;1709503;84;20145;-60
2022/06/30 00:48:38;;;;;;;;;;;;;;;24.92;55.41;153923.30;1709305;84;20175;-60
2022/06/30 00:51:05;;;;;;;;;;;;;;;24.92;55.74;153922.02;1709731;83;20466;-61
2022/06/30 00:53:34;;;;;;;;;;;;;;;24.89;55.93;153916.78;1709603;83;21141;-61
2022/06/30 00:56:01;;;;;;;;;;;;;;;24.89;56.16;153916.78;1709647;84;20185;-60
2022/06/30 00:58:29;;;;;;;;;;;;;;;24.91;56.22;153919.39;1709736;84;20426;-60
2022/06/30 01:00:55;;;;;;;;;;;;;;;24.84;56.44;153903.64;1709584;84;20687;-60
2022/06/30 01:03:22;;;;;;;;;;;;;;;24.83;56.68;153899.73;1737903;82;20178;-60
2022/06/30 01:05:49;;;;;;;;;;;;;;;24.83;56.77;153899.73;1743441;82;21926;-60
2022/06/30 01:08:16;;;;;;;;;;;;;;;24.85;56.78;153906.25;1743511;82;20458;-60
2022/06/30 01:13:30;;;;;;;;;;;;;;;24.87;56.97;153911.53;1728158;83;20176;-60
2022/06/30 01:15:58;;;;;;;;;;;;;;;24.88;57.06;153914.16;1728195;81;20148;-60
2022/06/30 01:18:25;;;;;;;;;;;;;;;24.91;57.09;153919.39;1728151;83;21240;-60
2022/06/30 01:20:52;;;;;;;;;;;;;;;24.89;57.17;153916.78;1728047;83;20192;-60
2022/06/30 01:23:19;;;;;;;;;;;;;;;24.84;57.51;153902.36;1728125;81;20441;-60
2022/06/30 01:25:46;;;;;;;;;;;;;;;24.74;57.70;153878.70;1728083;81;20205;-60
2022/06/30 01:28:14;;;;;;;;;;;;;;;24.59;58.24;153839.44;1728167;81;20173;-60
2022/06/30 01:30:41;;;;;;;;;;;;;;;24.40;59.12;153790.95;1728045;83;21138;-60
2022/06/30 01:33:10;;;;;;;;;;;;;;;24.22;59.87;153746.47;1728117;83;20192;-61
2022/06/30 01:35:38;;;;;;;;;;;;;;;24.06;60.68;153704.56;1728134;83;20148;-60
2022/06/30 01:38:06;;;;;;;;;;;;;;;23.97;61.16;153683.53;1728215;83;20309;-60
2022/06/30 01:40:34;;;;;;;;;;;;;;;23.95;61.61;153677.03;1728165;83;20232;-60
2022/06/30 01:43:01;;;;;;;;;;;;;;;23.98;61.82;153686.16;1728072;83;21262;-60
2022/06/30 01:45:27;;;;;;;;;;;;;;;24.03;61.94;153699.33;1727971;83;20381;-61
2022/06/30 01:47:55;;;;;;;;;;;;;;;24.03;62.16;153699.33;1728083;83;20193;-61
2022/06/30 01:50:24;;;;;;;;;;;;;;;24.05;62.68;153703.23;1728250;81;20394;-59
2022/06/30 01:52:51;;;;;;;;;;;;;;;24.08;62.79;153709.80;1669716;86;20477;-60
2022/06/30 01:55:18;;;;;;;;;;;;;;;24.07;63.33;153707.19;1728117;81;21227;-60
2022/06/30 01:57:45;;;;;;;;;;;;;;;24.11;63.38;153718.97;1728012;83;20119;-60
2022/06/30 02:00:14;;;;;;;;;;;;;;;24.12;63.29;153720.25;1728163;83;20150;-60
2022/06/30 02:02:41;;;;;;;;;;;;;;;24.13;63.01;153724.22;1719832;82;20204;-60
2022/06/30 02:05:08;;;;;;;;;;;;;;;24.16;63.08;153730.72;1709556;82;20153;-60
2022/06/30 02:07:36;;;;;;;;;;;;;;;24.14;63.12;153725.50;1709413;83;21858;-60
2022/06/30 02:10:06;;;;;;;;;;;;;;;24.16;62.79;153732.06;1709393;83;20193;-60
2022/06/30 02:12:45;;;;;;;;;;;;;;;24.22;62.62;153745.14;1709524;82;20184;-60
2022/06/30 02:15:16;;;;;;;;;;;;;;;24.30;62.33;153767.41;1709638;83;20146;-60
2022/06/30 02:17:43;;;;;;;;;;;;;;;24.40;61.73;153790.95;1668162;84;20491;-61
2022/06/30 02:20:11;;;;;;;;;;;;;;;24.52;61.50;153822.41;1709761;84;21205;-60
2022/06/30 02:22:41;;;;;;;;;;;;;;;24.68;60.92;153861.72;1709544;82;20465;-60
2022/06/30 02:25:08;;;;;;;;;;;;;;;24.78;60.76;153887.94;1709695;82;20262;-60
2022/06/30 02:27:35;;;;;;;;;;;;;;;24.83;60.66;153901.03;1709810;83;20129;-60
2022/06/30 02:30:02;;;;;;;;;;;;;;;24.89;60.51;153916.78;1709704;83;20158;-60
2022/06/30 02:32:29;;;;;;;;;;;;;;;24.99;60.20;153940.33;1709670;84;21135;-60
2022/06/30 02:34:56;;;;;;;;;;;;;;;25.09;59.86;153966.56;1709302;83;20201;-60
2022/06/30 02:37:22;;;;;;;;;;;;;;;25.19;59.58;153991.41;1709680;84;20268;-60
2022/06/30 02:39:49;;;;;;;;;;;;;;;25.28;59.34;154013.69;1709468;84;20130;-59
2022/06/30 02:42:15;;;;;;;;;;;;;;;25.35;59.14;154032.06;1709756;84;20189;-59
2022/06/30 02:44:42;;;;;;;;;;;;;;;25.39;59.31;154041.20;1709554;83;21239;-60
2022/06/30 02:47:09;;;;;;;;;;;;;;;25.44;59.41;154054.34;1709665;84;20200;-59
2022/06/30 02:49:37;;;;;;;;;;;;;;;25.47;59.42;154062.25;1709676;82;20189;-59
2022/06/30 02:52:04;;;;;;;;;;;;;;;25.50;59.53;154070.09;1709566;84;20153;-59
2022/06/30 02:54:31;;;;;;;;;;;;;;;25.54;59.81;154079.28;1709633;83;20197;-59
2022/06/30 02:56:58;;;;;;;;;;;;;;;25.55;60.12;154081.91;1709639;83;21149;-59
2022/06/30 02:59:25;;;;;;;;;;;;;;;25.56;60.48;154084.53;1709603;84;20202;-59
2022/06/30 03:01:52;;;;;;;;;;;;;;;25.57;60.52;154088.44;1709499;83;20395;-59
2022/06/30 03:04:19;;;;;;;;;;;;;;;25.60;60.87;154095.00;1736918;82;20178;-60
2022/06/30 03:06:47;;;;;;;;;;;;;;;25.61;61.44;154097.63;1737687;82;20416;-60
2022/06/30 03:09:13;;;;;;;;;;;;;;;25.66;61.98;154109.42;1737769;82;21232;-60
2022/06/30 03:11:42;;;;;;;;;;;;;;;25.69;62.54;154118.56;1721871;82;20169;-60
2022/06/30 03:14:08;;;;;;;;;;;;;;;25.72;62.85;154126.42;1718885;83;20530;-59
2022/06/30 03:16:35;;;;;;;;;;;;;;;25.77;63.12;154136.95;1718931;83;20834;-60
2022/06/30 03:19:02;;;;;;;;;;;;;;;25.83;62.54;154152.66;1718895;83;20422;-59
2022/06/30 03:21:29;;;;;;;;;;;;;;;25.82;61.86;154150.03;1718755;83;21112;-60
2022/06/30 03:23:56;;;;;;;;;;;;;;;25.79;61.77;154142.19;1718659;83;20165;-59
2022/06/30 03:26:23;;;;;;;;;;;;;;;25.76;61.78;154135.61;1718899;83;20169;-59
2022/06/30 03:28:50;;;;;;;;;;;;;;;25.73;61.93;154129.05;1718758;83;20442;-59
2022/06/30 03:31:17;;;;;;;;;;;;;;;25.70;62.16;154119.91;1718768;83;20166;-58
2022/06/30 03:33:43;;;;;;;;;;;;;;;25.64;62.76;154105.47;1718739;83;21265;-59
2022/06/30 03:36:10;;;;;;;;;;;;;;;25.62;63.17;154100.23;1718798;83;20138;-59
2022/06/30 03:38:37;;;;;;;;;;;;;;;25.64;63.29;154105.47;1718731;83;20157;-61
2022/06/30 03:41:03;;;;;;;;;;;;;;;25.71;63.36;154123.81;1718606;83;20360;-62
2022/06/30 03:43:30;;;;;;;;;;;;;;;25.77;63.43;154136.95;1718781;83;20137;-62
2022/06/30 03:45:57;;;;;;;;;;;;;;;25.86;63.25;154161.84;1718738;83;21295;-62
2022/06/30 03:48:23;;;;;;;;;;;;;;;25.93;62.92;154177.56;1718863;83;20173;-62
2022/06/30 03:50:50;;;;;;;;;;;;;;;25.99;62.67;154194.61;1718793;83;20150;-62
2022/06/30 03:53:17;;;;;;;;;;;;;;;26.06;62.84;154210.33;1718852;83;20411;-61
2022/06/30 03:55:43;;;;;;;;;;;;;;;26.12;62.67;154226.05;1718704;83;20172;-61
2022/06/30 03:58:10;;;;;;;;;;;;;;;26.21;62.02;154249.72;1718873;83;21242;-62
2022/06/30 04:00:38;;;;;;;;;;;;;;;26.29;61.85;154270.67;1718628;83;20222;-62
2022/06/30 04:03:04;;;;;;;;;;;;;;;26.36;61.67;154286.39;1718610;83;20438;-62
2022/06/30 04:05:31;;;;;;;;;;;;;;;26.46;61.36;154312.64;1718383;83;20189;-62
2022/06/30 04:07:58;;;;;;;;;;;;;;;26.58;60.81;154344.08;1718863;83;20176;-62
2022/06/30 04:10:25;;;;;;;;;;;;;;;26.69;60.07;154370.33;1724580;82;21252;-62
2022/06/30 04:12:52;;;;;;;;;;;;;;;26.76;59.74;154387.39;1737798;82;20237;-62
2022/06/30 04:15:19;;;;;;;;;;;;;;;26.82;59.82;154404.39;1737931;82;20178;-61
2022/06/30 04:17:46;;;;;;;;;;;;;;;26.91;59.51;154425.45;1737923;82;20131;-62
2022/06/30 04:20:16;;;;;;;;;;;;;;;26.99;59.11;154446.42;1737962;82;20167;-62
2022/06/30 04:22:44;;;;;;;;;;;;;;;27.07;58.93;154467.39;1737827;82;21138;-61
2022/06/30 04:25:11;;;;;;;;;;;;;;;27.09;58.62;154472.67;1737655;82;20283;-62
2022/06/30 04:27:52;;;;;;;;;;;;;;;27.11;58.57;154477.91;1737824;82;20195;-62
2022/06/30 04:32:53;;;;;;;;;;;;;;;27.26;58.70;154514.61;1714282;82;20170;-62
2022/06/30 04:35:20;;;;;;;;;;;;;;;27.41;58.26;154552.64;1737802;82;21137;-62
2022/06/30 04:37:46;;;;;;;;;;;;;;;27.53;58.07;154584.19;1737591;82;20203;-63
2022/06/30 04:42:59;;;;;;;;;;;;;;;27.70;56.93;154627.47;1737838;82;20448;-62
2022/06/30 04:45:25;;;;;;;;;;;;;;;27.72;57.12;154632.72;1737768;82;20432;-63
2022/06/30 04:47:52;;;;;;;;;;;;;;;27.80;57.18;154651.13;1737902;82;20649;-63
2022/06/30 04:50:19;;;;;;;;;;;;;;;27.86;56.69;154666.84;1737721;82;20175;-63
2022/06/30 04:52:46;;;;;;;;;;;;;;;27.93;56.70;154685.20;1737885;82;20182;-63
2022/06/30 04:55:13;;;;;;;;;;;;;;;28.00;56.27;154703.61;1738092;82;20162;-61
2022/06/30 04:57:40;;;;;;;;;;;;;;;28.11;55.86;154729.83;1737741;82;20163;-63
2022/06/30 05:00:07;;;;;;;;;;;;;;;28.19;55.71;154749.56;1737921;82;21322;-62
2022/06/30 05:02:34;;;;;;;;;;;;;;;28.23;55.27;154761.39;1738001;82;20174;-62
2022/06/30 05:05:01;;;;;;;;;;;;;;;28.30;55.16;154778.47;1743248;82;20139;-61
2022/06/30 05:07:28;;;;;;;;;;;;;;;28.34;55.51;154787.62;1743224;82;20174;-62
2022/06/30 05:09:54;;;;;;;;;;;;;;;28.43;56.00;154811.28;1741932;82;20403;-63
2022/06/30 05:12:21;;;;;;;;;;;;;;;28.50;55.50;154828.30;1728327;83;22004;-63
2022/06/30 05:14:48;;;;;;;;;;;;;;;28.55;55.22;154842.75;1728051;83;20200;-61
2022/06/30 05:17:15;;;;;;;;;;;;;;;28.62;54.92;154858.48;1727838;83;20207;-62
2022/06/30 05:19:42;;;;;;;;;;;;;;;28.73;54.78;154888.67;1727775;83;20219;-62
2022/06/30 05:22:08;;;;;;;;;;;;;;;28.87;54.57;154924.22;1727812;83;20192;-62
2022/06/30 05:27:21;;;;;;;;;;;;;;;29.08;53.81;154975.39;1728105;83;20557;-62
2022/06/30 05:29:48;;;;;;;;;;;;;;;29.08;53.60;154975.39;1728130;81;20386;-62
2022/06/30 05:32:14;;;;;;;;;;;;;;;28.99;53.59;154953.06;1728095;83;20606;-63
2022/06/30 05:34:41;;;;;;;;;;;;;;;28.99;53.94;154954.41;1728242;83;20097;-62
2022/06/30 05:37:08;;;;;;;;;;;;;;;29.08;53.81;154975.39;1728116;83;22153;-62
2022/06/30 05:39:35;;;;;;;;;;;;;;;29.18;53.85;155000.34;1728083;83;20184;-62
2022/06/30 05:42:03;;;;;;;;;;;;;;;29.26;53.57;155021.33;1729793;81;20185;-63
2022/06/30 05:44:32;;;;;;;;;;;;;;;29.33;53.31;155039.75;1730341;81;20151;-63
2022/06/30 05:46:58;;;;;;;;;;;;;;;29.33;53.52;155039.75;1706247;82;20149;-63
2022/06/30 05:49:25;;;;;;;;;;;;;;;29.33;53.12;155039.75;1726837;83;21285;-63
2022/06/30 05:51:52;;;;;;;;;;;;;;;29.31;52.95;155034.50;1719402;83;20122;-64
2022/06/30 05:54:19;;;;;;;;;;;;;;;29.23;53.11;155014.80;1719533;83;20205;-64
2022/06/30 05:56:45;;;;;;;;;;;;;;;29.11;53.61;154984.59;1718294;83;20195;-63
2022/06/30 05:59:12;;;;;;;;;;;;;;;28.99;54.11;154953.06;1721344;83;20204;-63
2022/06/30 06:01:39;;;;;;;;;;;;;;;28.95;54.93;154942.58;1723393;82;21301;-62
2022/06/30 06:04:06;;;;;;;;;;;;;;;28.97;54.53;154947.81;1727816;82;20145;-64
2022/06/30 06:06:34;;;;;;;;;;;;;;;29.01;54.44;154958.31;1720065;83;20463;-63
2022/06/30 06:09:01;;;;;;;;;;;;;;;29.06;54.30;154970.14;1721732;82;20192;-63
2022/06/30 06:11:30;;;;;;;;;;;;;;;29.10;53.98;154981.97;1723528;82;20197;-64
2022/06/30 06:13:57;;;;;;;;;;;;;;;29.13;54.06;154989.84;1724051;83;21282;-64
2022/06/30 06:16:24;;;;;;;;;;;;;;;29.16;54.17;154997.72;1719935;82;20166;-64
2022/06/30 06:18:51;;;;;;;;;;;;;;;29.25;54.00;155018.70;1719340;83;20460;-64
2022/06/30 06:21:18;;;;;;;;;;;;;;;29.31;54.13;155034.50;1719275;83;20770;-64
2022/06/30 06:23:44;;;;;;;;;;;;;;;29.28;54.34;155027.92;1720157;83;20122;-64
2022/06/30 06:26:12;;;;;;;;;;;;;;;29.28;54.42;155027.92;1725777;82;21846;-64
2022/06/30 06:31:24;;;;;;;;;;;;;;;29.36;52.94;155047.63;1731401;81;20139;-66
2022/06/30 06:33:51;;;;;;;;;;;;;;;29.42;53.07;155063.41;1735199;81;20174;-64
2022/06/30 06:36:19;;;;;;;;;;;;;;;29.53;52.99;155091.00;1721679;82;20459;-65
2022/06/30 06:38:46;;;;;;;;;;;;;;;29.64;52.61;155118.56;1722111;81;21240;-65
2022/06/30 06:41:12;;;;;;;;;;;;;;;29.69;52.21;155131.69;1720686;83;20290;-65
2022/06/30 06:43:39;;;;;;;;;;;;;;;29.76;52.29;155148.78;1725795;83;20208;-65
2022/06/30 06:46:07;;;;;;;;;;;;;;;29.79;52.57;155155.36;1727811;81;20403;-65
2022/06/30 06:48:35;;;;;;;;;;;;;;;29.79;52.56;155155.36;1727671;83;20124;-65
2022/06/30 06:51:02;;;;;;;;;;;;;;;29.78;52.88;155152.73;1727115;81;21124;-65
2022/06/30 06:53:29;;;;;;;;;;;;;;;29.76;52.77;155147.50;1721607;83;20211;-66
2022/06/30 06:55:56;;;;;;;;;;;;;;;29.76;53.32;155148.78;1724223;81;20188;-65
2022/06/30 06:58:22;;;;;;;;;;;;;;;29.77;53.52;155150.11;1721575;83;20641;-65
2022/06/30 07:00:49;;;;;;;;;;;;;;;29.82;53.69;155163.23;1734923;82;20174;-65
2022/06/30 07:03:16;;;;;;;;;;;;;;;29.85;53.52;155172.44;1730252;82;22145;-65
2022/06/30 07:05:43;;;;;;;;;;;;;;;29.86;53.58;155173.73;1727840;83;20165;-65
2022/06/30 07:08:11;;;;;;;;;;;;;;;29.84;53.85;155169.83;1727899;83;20207;-64
2022/06/30 07:10:39;;;;;;;;;;;;;;;29.84;54.45;155168.48;1726664;81;20893;-64
2022/06/30 07:13:05;;;;;;;;;;;;;;;29.78;55.46;155152.73;1741890;82;20296;-64
2022/06/30 07:15:32;;;;;;;;;;;;;;;29.68;55.72;155129.06;1728170;82;21171;-64
2022/06/30 07:18:00;;;;;;;;;;;;;;;29.63;56.19;155115.95;1727442;83;20190;-64
2022/06/30 07:20:27;;;;;;;;;;;;;;;29.63;56.27;155115.95;1727622;83;20177;-64
2022/06/30 07:22:54;;;;;;;;;;;;;;;29.65;57.04;155119.91;1727372;83;20464;-63
2022/06/30 07:25:20;;;;;;;;;;;;;;;29.70;57.05;155134.31;1727365;83;20145;-63
2022/06/30 07:27:47;;;;;;;;;;;;;;;29.80;56.41;155159.28;1720548;83;21489;-64
2022/06/30 07:30:14;;;;;;;;;;;;;;;29.90;56.89;155184.23;1725719;82;20176;-63
2022/06/30 07:32:40;;;;;;;;;;;;;;;29.92;57.40;155189.48;1725547;81;20604;-64
2022/06/30 07:35:08;;;;;;;;;;;;;;;30.00;57.39;155210.53;1725915;83;20199;-65
2022/06/30 07:37:38;;;;;;;;;;;;;;;30.14;57.13;155244.70;1719060;83;20186;-64
2022/06/30 07:40:06;;;;;;;;;;;;;;;30.24;56.89;155271.00;1727294;83;21339;-64
2022/06/30 07:42:33;;;;;;;;;;;;;;;30.29;55.88;155284.13;1720466;83;20675;-63
2022/06/30 07:45:00;;;;;;;;;;;;;;;30.32;55.73;155289.38;1726908;81;20186;-64
2022/06/30 07:47:26;;;;;;;;;;;;;;;30.36;55.61;155299.89;1726888;81;20174;-64
2022/06/30 07:49:53;;;;;;;;;;;;;;;30.37;55.62;155302.50;1733863;80;20198;-63
2022/06/30 07:52:19;;;;;;;;;;;;;;;30.35;55.10;155297.25;1738336;81;21211;-65
2022/06/30 07:54:46;;;;;;;;;;;;;;;30.30;55.10;155285.47;1696549;84;20232;-64
2022/06/30 07:57:13;;;;;;;;;;;;;;;30.20;55.86;155260.50;1733482;81;20216;-64
2022/06/30 07:59:40;;;;;;;;;;;;;;;30.12;56.16;155240.80;1722243;83;20218;-64
2022/06/30 08:02:10;;;;;;;;;;;;;;;30.08;57.07;155230.30;1718574;83;20450;-64
2022/06/30 08:04:37;;;;;;;;;;;;;;;29.86;57.63;155175.08;1728419;82;21221;-64
2022/06/30 08:07:04;;;;;;;;;;;;;;;29.74;57.90;155143.53;1716795;82;20483;-64
2022/06/30 08:09:32;;;;;;;;;;;;;;;29.69;58.20;155131.69;1718191;83;20645;-63
2022/06/30 08:11:59;;;;;;;;;;;;;;;29.63;58.83;155115.95;1719622;82;20198;-63
2022/06/30 08:14:26;;;;;;;;;;;;;;;29.51;59.61;155084.41;1719051;82;20131;-63
2022/06/30 08:16:54;;;;;;;;;;;;;;;29.35;59.92;155043.66;1719051;83;21222;-63
2022/06/30 08:19:21;;;;;;;;;;;;;;;29.12;60.77;154985.89;1714929;82;20166;-63
2022/06/30 08:21:47;;;;;;;;;;;;;;;28.78;61.87;154900.50;1713532;83;20147;-63
2022/06/30 08:24:15;;;;;;;;;;;;;;;28.33;62.90;154785.00;1718473;83;20173;-63
2022/06/30 08:26:42;;;;;;;;;;;;;;;27.78;64.24;154645.88;1711566;82;20188;-63
2022/06/30 08:29:12;;;;;;;;;;;;;;;27.23;66.16;154508.08;1711687;84;20288;-63
2022/06/30 08:31:39;;;;;;;;;;;;;;;26.76;67.59;154388.67;1711812;83;20483;-63
2022/06/30 08:34:06;;;;;;;;;;;;;;;26.46;68.03;154312.64;1703375;83;20150;-64
2022/06/30 08:36:34;;;;;;;;;;;;;;;26.29;68.54;154270.67;1687482;84;20231;-63
2022/06/30 08:39:01;;;;;;;;;;;;;;;26.26;68.69;154262.81;1661326;85;20213;-65
2022/06/30 08:44:13;;;;;;;;;;;;;;;26.27;68.95;154264.09;1690453;85;20243;-65
2022/06/30 08:46:39;;;;;;;;;;;;;;;26.16;69.85;154237.91;1693582;83;20196;-63
2022/06/30 08:49:06;;;;;;;;;;;;;;;26.07;70.31;154212.95;1696134;84;20166;-64
2022/06/30 08:51:34;;;;;;;;;;;;;;;25.84;71.14;154155.28;1716566;82;20222;-65
2022/06/30 08:54:01;;;;;;;;;;;;;;;25.66;72.41;154109.42;1715480;82;21237;-65
2022/06/30 08:56:34;;;;;;;;;;;;;;;25.59;74.52;154092.38;1713455;83;20275;-65
2022/06/30 08:59:03;;;;;;;;;;;;;;;25.56;76.39;154084.53;1721274;82;20202;-66
2022/06/30 09:01:30;;;;;;;;;;;;;;;25.59;77.86;154092.38;1735399;82;20151;-65
2022/06/30 09:03:56;;;;;;;;;;;;;;;25.60;77.71;154096.28;1738798;81;20182;-65
2022/06/30 09:06:23;;;;;;;;;;;;;;;25.53;75.45;154076.63;1712227;82;22147;-65
2022/06/30 09:08:51;;;;;;;;;;;;;;;25.41;76.25;154047.77;1735810;82;20571;-65
2022/06/30 09:11:19;;;;;;;;;;;;;;;25.32;76.91;154025.48;1725230;82;20246;-64
2022/06/30 09:13:53;;;;;;;;;;;;;;;25.28;76.99;154015.02;1736884;81;20112;-65
2022/06/30 09:16:18;;;;;;;;;;;;;;;25.21;78.46;153996.69;1726691;82;20182;-63
2022/06/30 09:18:45;;;;;;;;;;;;;;;25.18;79.69;153990.13;1720688;83;21293;-64
2022/06/30 09:21:15;;;;;;;;;;;;;;;25.25;79.98;154005.83;1738423;82;20228;-63
2022/06/30 09:23:43;;;;;;;;;;;;;;;25.29;80.02;154017.64;1744048;82;20179;-64
2022/06/30 09:26:15;;;;;;;;;;;;;;;25.34;80.80;154028.11;1752858;81;20125;-64
2022/06/30 09:28:56;;;;;;;;;;;;;;;25.41;79.92;154046.44;1729768;82;20474;-63
2022/06/30 09:31:34;;;;;;;;;;;;;;;25.48;78.86;154063.53;1724675;82;21175;-63
2022/06/30 09:34:18;;;;;;;;;;;;;;;25.56;79.26;154084.53;1752983;81;20198;-63
2022/06/30 09:36:47;;;;;;;;;;;;;;;25.68;78.89;154115.94;1730170;82;20130;-64
2022/06/30 09:39:15;;;;;;;;;;;;;;;25.76;77.94;154134.33;1733744;82;20168;-64
2022/06/30 09:41:43;;;;;;;;;;;;;;;25.83;78.25;154152.66;1753892;82;20175;-64
2022/06/30 09:44:20;;;;;;;;;;;;;;;25.79;78.50;154143.47;1745192;81;20763;-64
2022/06/30 09:47:07;;;;;;;;;;;;;;;25.67;79.29;154112.05;1753297;82;20149;-64
2022/06/30 09:49:36;;;;;;;;;;;;;;;25.62;79.70;154100.23;1728526;82;20226;-64
2022/06/30 09:52:05;;;;;;;;;;;;;;;25.57;80.79;154087.14;1753709;82;20646;-65
2022/06/30 09:54:35;;;;;;;;;;;;;;;25.53;81.23;154076.63;1744970;82;20159;-65
2022/06/30 09:57:04;;;;;;;;;;;;;;;25.50;81.48;154068.77;1720014;82;21129;-65
2022/06/30 09:59:31;;;;;;;;;;;;;;;25.33;81.72;154026.83;1727677;82;20140;-65
2022/06/30 10:01:58;;;;;;;;;;;;;;;25.12;82.38;153974.41;1724032;82;20175;-65
2022/06/30 10:04:26;;;;;;;;;;;;;;;24.99;82.55;153941.67;1720481;80;20134;-64
2022/06/30 10:06:53;;;;;;;;;;;;;;;24.82;83.04;153897.13;1723443;81;20231;-64
2022/06/30 10:09:19;;;;;;;;;;;;;;;24.69;84.19;153864.33;1725158;81;21243;-64
2022/06/30 10:11:46;;;;;;;;;;;;;;;24.57;84.11;153835.48;1745236;81;20133;-64
2022/06/30 10:14:15;;;;;;;;;;;;;;;24.51;82.07;153819.78;1754460;81;20207;-64
2022/06/30 10:16:42;;;;;;;;;;;;;;;24.59;80.53;153839.44;1723520;81;21090;-65
2022/06/30 10:19:09;;;;;;;;;;;;;;;24.70;77.27;153868.23;1750097;81;20140;-66
2022/06/30 10:21:39;;;;;;;;;;;;;;;24.81;74.71;153895.78;1723454;82;21294;-64
2022/06/30 10:24:06;;;;;;;;;;;;;;;24.82;72.98;153898.41;1732520;82;20150;-64
2022/06/30 10:29:19;;;;;;;;;;;;;;;24.74;74.62;153877.42;1724080;83;20506;-65
2022/06/30 10:32:01;;;;;;;;;;;;;;;24.63;75.18;153848.58;1729946;81;20139;-65
2022/06/30 10:34:34;;;;;;;;;;;;;;;24.51;75.86;153819.78;1696813;84;21047;-65
2022/06/30 10:37:14;;;;;;;;;;;;;;;24.39;75.67;153788.34;1730203;81;20088;-65
2022/06/30 10:39:47;;;;;;;;;;;;;;;24.31;76.15;153770.03;1715919;82;20208;-65
2022/06/30 10:42:46;;;;;;;;;;;;;;;24.11;78.22;153717.64;1724185;82;20183;-65
2022/06/30 10:45:33;;;;;;;;;;;;;;;23.80;78.72;153639.06;1712065;81;20202;-65
2022/06/30 10:48:02;;;;;;;;;;;;;;;23.56;79.44;153578.86;1738524;81;21149;-66
2022/06/30 10:50:31;;;;;;;;;;;;;;;23.28;80.28;153509.48;1723819;81;20367;-65
2022/06/30 10:52:58;;;;;;;;;;;;;;;23.09;80.32;153460.98;1704154;83;20567;-66
2022/06/30 10:55:25;;;;;;;;;;;;;;;23.08;80.12;153457.08;1679938;84;20207;-66
2022/06/30 10:58:06;;;;;;;;;;;;;;;23.09;80.68;153459.69;1679235;84;20178;-66
2022/06/30 11:00:42;;;;;;;;;;;;;;;23.06;80.57;153453.13;1700399;83;21220;-66
2022/06/30 11:03:08;;;;;;;;;;;;;;;23.04;79.77;153447.91;1709942;83;20429;-65
2022/06/30 11:05:45;;;;;;;;;;;;;;;23.11;80.36;153466.25;1698498;83;20211;-66
2022/06/30 11:08:39;;;;;;;;;;;;;;;23.22;79.97;153492.41;1684709;83;20144;-66
2022/06/30 11:11:25;;;;;;;;;;;;;;;23.27;81.41;153505.53;1612451;87;20226;-66
2022/06/30 11:14:06;;;;;;;;;;;;;;;23.14;85.51;153474.11;1594316;87;21311;-65
2022/06/30 11:16:35;;;;;;;;;;;;;;;22.72;86.73;153366.81;1712872;81;20206;-66
2022/06/30 11:19:04;;;;;;;;;;;;;;;22.38;88.18;153280.41;1737352;81;20194;-67
2022/06/30 11:21:31;;;;;;;;;;;;;;;22.17;89.71;153228.09;1737446;81;20450;-66
2022/06/30 11:24:02;;;;;;;;;;;;;;;22.04;91.37;153195.39;1743562;81;20451;-66
2022/06/30 11:29:16;;;;;;;;;;;;;;;21.81;93.88;153136.58;1738129;81;20435;-65
2022/06/30 11:31:42;;;;;;;;;;;;;;;21.77;95.11;153126.08;1742008;81;20200;-66
2022/06/30 11:34:11;;;;;;;;;;;;;;;21.74;95.98;153119.58;1734970;81;20221;-65
2022/06/30 11:36:39;;;;;;;;;;;;;;;21.77;97.48;153126.08;1753821;81;20198;-66
2022/06/30 11:39:08;;;;;;;;;;;;;;;21.83;98.59;153141.81;1740344;81;21239;-65
2022/06/30 11:44:29;;;;;;;;;;;;;;;21.81;99.46;153136.58;1736826;81;20222;-65
2022/06/30 11:46:58;;;;;;;;;;;;;;;21.84;100.00;153145.70;1739955;81;20168;-65
2022/06/30 11:49:42;;;;;;;;;;;;;;;21.88;100.00;153154.88;1723902;82;20184;-65
2022/06/30 11:52:14;;;;;;;;;;;;;;;21.92;99.71;153165.31;1730680;81;21286;-63
2022/06/30 11:54:51;;;;;;;;;;;;;;;21.98;98.90;153181.00;1734591;82;20215;-64
2022/06/30 11:57:19;;;;;;;;;;;;;;;22.07;97.35;153201.95;1735905;82;20193;-64
2022/06/30 11:59:48;;;;;;;;;;;;;;;22.15;97.36;153222.86;1699365;83;20540;-64
2022/06/30 12:02:15;;;;;;;;;;;;;;;22.25;97.56;153249.03;1726546;82;20155;-65
2022/06/30 12:04:42;;;;;;;;;;;;;;;22.39;97.59;153284.34;1723700;83;21136;-64
2022/06/30 12:07:12;;;;;;;;;;;;;;;22.50;98.92;153311.88;1715714;82;20130;-64
2022/06/30 12:09:42;;;;;;;;;;;;;;;22.61;100.00;153340.63;1695231;84;20421;-64
2022/06/30 12:12:10;;;;;;;;;;;;;;;22.76;100.00;153377.27;1693549;83;20134;-65
2022/06/30 12:14:39;;;;;;;;;;;;;;;22.88;100.00;153408.69;1673515;83;20123;-64
2022/06/30 12:17:06;;;;;;;;;;;;;;;22.94;100.00;153423.05;1724246;83;21093;-65
2022/06/30 12:19:33;;;;;;;;;;;;;;;22.97;100.00;153430.87;1723950;83;20165;-65
2022/06/30 12:22:01;;;;;;;;;;;;;;;23.01;100.00;153440.06;1714766;83;20201;-63
2022/06/30 12:24:28;;;;;;;;;;;;;;;23.03;100.00;153445.28;1693636;84;20771;-64
2022/06/30 12:26:57;;;;;;;;;;;;;;;23.04;100.00;153447.91;1704299;83;20228;-63
2022/06/30 12:29:25;;;;;;;;;;;;;;;23.09;100.00;153459.69;1719516;83;21274;-64
2022/06/30 12:32:10;;;;;;;;;;;;;;;23.12;100.00;153468.88;1692178;83;20175;-64
2022/06/30 12:34:51;;;;;;;;;;;;;;;23.15;100.00;153475.39;1698615;83;20473;-64
2022/06/30 12:37:38;;;;;;;;;;;;;;;23.17;100.00;153480.63;1694106;84;20181;-64
2022/06/30 12:40:10;;;;;;;;;;;;;;;23.22;100.00;153492.41;1695501;83;20180;-64
2022/06/30 12:42:44;;;;;;;;;;;;;;;23.30;100.00;153514.72;1692585;83;21046;-65
2022/06/30 12:45:46;;;;;;;;;;;;;;;23.37;100.00;153531.73;1700503;83;20190;-65
2022/06/30 12:48:33;;;;;;;;;;;;;;;23.44;100.00;153550.03;1709839;83;20289;-65
2022/06/30 12:51:00;;;;;;;;;;;;;;;23.46;100.00;153555.27;1678388;83;20169;-64
2022/06/30 12:53:27;;;;;;;;;;;;;;;23.49;100.00;153561.83;1701828;83;20199;-65
2022/06/30 12:56:07;;;;;;;;;;;;;;;23.54;100.00;153574.91;1709118;83;21209;-65
2022/06/30 12:58:51;;;;;;;;;;;;;;;23.54;100.00;153573.56;1686441;83;20274;-65
2022/06/30 13:01:23;;;;;;;;;;;;;;;23.55;100.00;153577.52;1684773;83;20222;-64
2022/06/30 13:03:56;;;;;;;;;;;;;;;23.52;100.00;153568.34;1687480;84;20141;-64
2022/06/30 13:06:24;;;;;;;;;;;;;;;23.56;100.00;153578.86;1695665;82;20519;-64
2022/06/30 13:08:52;;;;;;;;;;;;;;;23.58;99.95;153585.37;1712093;81;21238;-64